sensor_id;sensor_type;location;lat;lon;timestamp;temperature;humidity
8537;DHT22;4306;50.210;10.628;2024-01-16T00:00:44;-0.40;99.90
8537;DHT22;4306;50.210;10.628;2024-01-16T00:03:12;-0.50;99.90
8537;DHT22;4306;50.210;10.628;2024-01-16T00:05:40;-0.50;99.90
8537;DHT22;4306;50.210;10.628;2024-01-16T00:08:07;-0.50;99.90
8537;DHT22;4306;50.210;10.628;2024-01-16T00:10:34;-0.40;99.90
8537;DHT22;4306;50.210;10.628;2024-01-16T00:13:01;-0.30;99.90
8537;DHT22;4306;50.210;10.628;2024-01-16T00:15:28;-0.40;99.90
8537;DHT22;4306;50.210;10.628;2024-01-16T00:17:56;-0.40;99.90
8537;DHT22;4306;50.210;10.628;2024-01-16T00:20:23;-0.40;99.90
8537;DHT22;4306;50.210;10.628;2024-01-16T00:22:52;-0.40;99.90
8537;DHT22;4306;50.210;10.628;2024-01-16T00:25:20;-0.40;99.90
8537;DHT22;4306;50.210;10.628;2024-01-16T00:27:47;-0.40;99.90
8537;DHT22;4306;50.210;10.628;2024-01-16T00:30:14;-0.40;99.90
8537;DHT22;4306;50.210;10.628;2024-01-16T00:32:42;-0.50;99.90
8537;DHT22;4306;50.210;10.628;2024-01-16T00:35:09;-0.40;99.90
8537;DHT22;4306;50.210;10.628;2024-01-16T00:37:36;-0.40;99.90
8537;DHT22;4306;50.210;10.628;2024-01-16T00:40:06;-0.40;99.90
8537;DHT22;4306;50.210;10.628;2024-01-16T00:42:35;-0.40;99.90
8537;DHT22;4306;50.210;10.628;2024-01-16T00:45:02;-0.40;99.90
8537;DHT22;4306;50.210;10.628;2024-01-16T00:47:30;-0.40;99.90
8537;DHT22;4306;50.210;10.628;2024-01-16T00:49:57;-0.40;99.90
8537;DHT22;4306;50.210;10.628;2024-01-16T00:52:26;-0.40;99.90
8537;DHT22;4306;50.210;10.628;2024-01-16T00:54:53;-0.40;99.90
8537;DHT22;4306;50.210;10.628;2024-01-16T00:57:21;-0.30;99.90
8537;DHT22;4306;50.210;10.628;2024-01-16T00:59:48;-0.30;99.90
8537;DHT22;4306;50.210;10.628;2024-01-16T01:02:15;-0.40;99.90
8537;DHT22;4306;50.210;10.628;2024-01-16T01:04:42;-0.30;99.90
8537;DHT22;4306;50.210;10.628;2024-01-16T01:07:13;-0.40;99.90
8537;DHT22;4306;50.210;10.628;2024-01-16T01:09:41;-0.40;99.90
8537;DHT22;4306;50.210;10.628;2024-01-16T01:12:08;-0.40;99.90
8537;DHT22;4306;50.210;10.628;2024-01-16T01:14:37;-0.50;99.90
8537;DHT22;4306;50.210;10.628;2024-01-16T01:17:04;-0.40;99.90
8537;DHT22;4306;50.210;10.628;2024-01-16T01:19:32;-0.40;99.90
8537;DHT22;4306;50.210;10.628;2024-01-16T01:21:59;-0.40;99.90
8537;DHT22;4306;50.210;10.628;2024-01-16T01:24:26;-0.50;99.90
8537;DHT22;4306;50.210;10.628;2024-01-16T01:26:53;-0.40;99.90
8537;DHT22;4306;50.210;10.628;2024-01-16T01:29:20;-0.40;99.90
8537;DHT22;4306;50.210;10.628;2024-01-16T01:31:48;-0.40;99.90
8537;DHT22;4306;50.210;10.628;2024-01-16T01:34:15;-0.50;99.90
8537;DHT22;4306;50.210;10.628;2024-01-16T01:36:42;-0.50;99.90
8537;DHT22;4306;50.210;10.628;2024-01-16T01:39:10;-0.70;99.90
8537;DHT22;4306;50.210;10.628;2024-01-16T01:41:38;-0.40;99.90
8537;DHT22;4306;50.210;10.628;2024-01-16T01:44:06;-0.40;99.90
8537;DHT22;4306;50.210;10.628;2024-01-16T01:46:35;-0.40;99.90
8537;DHT22;4306;50.210;10.628;2024-01-16T01:49:04;-0.40;99.90
8537;DHT22;4306;50.210;10.628;2024-01-16T01:51:31;-0.40;99.90
8537;DHT22;4306;50.210;10.628;2024-01-16T01:54:00;-0.40;99.90
8537;DHT22;4306;50.210;10.628;2024-01-16T01:56:28;-0.50;99.90
8537;DHT22;4306;50.210;10.628;2024-01-16T01:58:57;-0.40;99.90
8537;DHT22;4306;50.210;10.628;2024-01-16T02:01:26;-0.40;99.90
8537;DHT22;4306;50.210;10.628;2024-01-16T02:03:55;-0.50;99.90
8537;DHT22;4306;50.210;10.628;2024-01-16T02:06:24;-0.50;99.90
8537;DHT22;4306;50.210;10.628;2024-01-16T02:08:52;-0.40;99.90
8537;DHT22;4306;50.210;10.628;2024-01-16T02:11:19;-0.40;99.90
8537;DHT22;4306;50.210;10.628;2024-01-16T02:13:46;-0.40;99.90
8537;DHT22;4306;50.210;10.628;2024-01-16T02:16:19;-0.50;99.90
8537;DHT22;4306;50.210;10.628;2024-01-16T02:18:47;-0.40;99.90
8537;DHT22;4306;50.210;10.628;2024-01-16T02:21:18;-0.40;99.90
8537;DHT22;4306;50.210;10.628;2024-01-16T02:23:48;-0.40;99.90
8537;DHT22;4306;50.210;10.628;2024-01-16T02:26:18;-0.40;99.90
8537;DHT22;4306;50.210;10.628;2024-01-16T02:28:45;-0.40;99.90
8537;DHT22;4306;50.210;10.628;2024-01-16T02:31:12;-0.50;99.90
8537;DHT22;4306;50.210;10.628;2024-01-16T02:33:39;-0.40;99.90
8537;DHT22;4306;50.210;10.628;2024-01-16T02:36:07;-0.50;99.90
8537;DHT22;4306;50.210;10.628;2024-01-16T02:38:34;-0.70;99.90
8537;DHT22;4306;50.210;10.628;2024-01-16T02:41:03;-0.70;99.90
8537;DHT22;4306;50.210;10.628;2024-01-16T02:43:31;-0.70;99.90
8537;DHT22;4306;50.210;10.628;2024-01-16T02:45:58;-0.70;99.90
8537;DHT22;4306;50.210;10.628;2024-01-16T02:48:25;-0.60;99.90
8537;DHT22;4306;50.210;10.628;2024-01-16T02:50:52;-0.70;99.90
8537;DHT22;4306;50.210;10.628;2024-01-16T02:53:19;-0.70;99.90
8537;DHT22;4306;50.210;10.628;2024-01-16T02:55:46;-0.60;99.90
8537;DHT22;4306;50.210;10.628;2024-01-16T02:58:15;-0.70;99.90
8537;DHT22;4306;50.210;10.628;2024-01-16T03:00:42;-0.60;99.90
8537;DHT22;4306;50.210;10.628;2024-01-16T03:03:09;-0.70;99.90
8537;DHT22;4306;50.210;10.628;2024-01-16T03:05:37;-0.70;99.90
8537;DHT22;4306;50.210;10.628;2024-01-16T03:08:05;-0.80;99.90
8537;DHT22;4306;50.210;10.628;2024-01-16T03:10:32;-0.80;99.90
8537;DHT22;4306;50.210;10.628;2024-01-16T03:12:59;-0.80;99.90
8537;DHT22;4306;50.210;10.628;2024-01-16T03:15:27;-0.90;99.90
8537;DHT22;4306;50.210;10.628;2024-01-16T03:17:56;-0.80;99.90
8537;DHT22;4306;50.210;10.628;2024-01-16T03:20:23;-0.90;99.90
8537;DHT22;4306;50.210;10.628;2024-01-16T03:22:50;-0.80;99.90
8537;DHT22;4306;50.210;10.628;2024-01-16T03:25:18;-0.90;99.90
8537;DHT22;4306;50.210;10.628;2024-01-16T03:27:45;-0.80;99.90
8537;DHT22;4306;50.210;10.628;2024-01-16T03:30:12;-0.80;99.90
8537;DHT22;4306;50.210;10.628;2024-01-16T03:32:41;-0.80;99.90
8537;DHT22;4306;50.210;10.628;2024-01-16T03:35:08;-0.90;99.90
8537;DHT22;4306;50.210;10.628;2024-01-16T03:37:37;-0.90;99.90
8537;DHT22;4306;50.210;10.628;2024-01-16T03:40:06;-1.00;99.90
8537;DHT22;4306;50.210;10.628;2024-01-16T03:42:34;-1.00;99.90
8537;DHT22;4306;50.210;10.628;2024-01-16T03:45:01;-1.00;99.90
8537;DHT22;4306;50.210;10.628;2024-01-16T03:47:28;-1.00;99.90
8537;DHT22;4306;50.210;10.628;2024-01-16T03:49:56;-1.00;99.90
8537;DHT22;4306;50.210;10.628;2024-01-16T03:52:23;-1.00;99.90
8537;DHT22;4306;50.210;10.628;2024-01-16T03:54:51;-0.90;99.90
8537;DHT22;4306;50.210;10.628;2024-01-16T03:57:18;-1.10;99.90
8537;DHT22;4306;50.210;10.628;2024-01-16T03:59:45;-1.10;99.90
8537;DHT22;4306;50.210;10.628;2024-01-16T04:02:12;-1.10;99.90
8537;DHT22;4306;50.210;10.628;2024-01-16T04:04:39;-1.10;99.90
8537;DHT22;4306;50.210;10.628;2024-01-16T04:07:08;-1.00;99.90
8537;DHT22;4306;50.210;10.628;2024-01-16T04:09:35;-1.20;99.90
8537;DHT22;4306;50.210;10.628;2024-01-16T04:12:02;-1.20;99.90
8537;DHT22;4306;50.210;10.628;2024-01-16T04:14:29;-1.30;99.90
8537;DHT22;4306;50.210;10.628;2024-01-16T04:16:56;-1.20;99.90
8537;DHT22;4306;50.210;10.628;2024-01-16T04:19:24;-1.30;99.90
8537;DHT22;4306;50.210;10.628;2024-01-16T04:21:51;-1.30;99.90
8537;DHT22;4306;50.210;10.628;2024-01-16T04:24:20;-1.40;99.90
8537;DHT22;4306;50.210;10.628;2024-01-16T04:26:48;-1.30;99.90
8537;DHT22;4306;50.210;10.628;2024-01-16T04:29:17;-1.30;99.90
8537;DHT22;4306;50.210;10.628;2024-01-16T04:31:44;-1.30;99.90
8537;DHT22;4306;50.210;10.628;2024-01-16T04:34:11;-1.10;99.90
8537;DHT22;4306;50.210;10.628;2024-01-16T04:36:38;-1.30;99.90
8537;DHT22;4306;50.210;10.628;2024-01-16T04:39:05;-1.20;99.90
8537;DHT22;4306;50.210;10.628;2024-01-16T04:41:34;-1.30;99.90
8537;DHT22;4306;50.210;10.628;2024-01-16T04:44:02;-1.30;99.90
8537;DHT22;4306;50.210;10.628;2024-01-16T04:46:31;-1.30;99.90
8537;DHT22;4306;50.210;10.628;2024-01-16T04:48:58;-1.30;99.90
8537;DHT22;4306;50.210;10.628;2024-01-16T04:51:27;-1.40;99.90
8537;DHT22;4306;50.210;10.628;2024-01-16T04:53:57;-1.40;99.90
8537;DHT22;4306;50.210;10.628;2024-01-16T04:56:26;-1.40;99.90
8537;DHT22;4306;50.210;10.628;2024-01-16T04:58:55;-1.50;99.90
8537;DHT22;4306;50.210;10.628;2024-01-16T05:12:26;-1.50;99.90
8537;DHT22;4306;50.210;10.628;2024-01-16T05:15:11;-1.40;99.90
8537;DHT22;4306;50.210;10.628;2024-01-16T05:17:49;-1.40;99.90
8537;DHT22;4306;50.210;10.628;2024-01-16T05:20:16;-1.40;99.90
8537;DHT22;4306;50.210;10.628;2024-01-16T05:22:43;-1.30;99.90
8537;DHT22;4306;50.210;10.628;2024-01-16T05:25:10;-1.30;99.90
8537;DHT22;4306;50.210;10.628;2024-01-16T05:27:37;-1.20;99.90
8537;DHT22;4306;50.210;10.628;2024-01-16T05:30:10;-1.20;99.90
8537;DHT22;4306;50.210;10.628;2024-01-16T05:32:40;-1.20;99.90
8537;DHT22;4306;50.210;10.628;2024-01-16T05:35:07;-1.20;99.90
8537;DHT22;4306;50.210;10.628;2024-01-16T05:37:35;-1.20;99.90
8537;DHT22;4306;50.210;10.628;2024-01-16T05:40:02;-1.20;99.90
8537;DHT22;4306;50.210;10.628;2024-01-16T05:42:31;-1.10;99.90
8537;DHT22;4306;50.210;10.628;2024-01-16T05:44:58;-1.20;99.90
8537;DHT22;4306;50.210;10.628;2024-01-16T05:47:26;-1.10;99.90
8537;DHT22;4306;50.210;10.628;2024-01-16T05:49:54;-1.10;99.90
8537;DHT22;4306;50.210;10.628;2024-01-16T05:52:21;-1.20;99.90
8537;DHT22;4306;50.210;10.628;2024-01-16T05:54:48;-1.20;99.90
8537;DHT22;4306;50.210;10.628;2024-01-16T05:57:15;-1.20;99.90
8537;DHT22;4306;50.210;10.628;2024-01-16T05:59:42;-1.10;99.90
8537;DHT22;4306;50.210;10.628;2024-01-16T06:02:09;-1.20;99.90
8537;DHT22;4306;50.210;10.628;2024-01-16T06:04:38;-1.20;99.90
8537;DHT22;4306;50.210;10.628;2024-01-16T06:07:05;-1.20;99.90
8537;DHT22;4306;50.210;10.628;2024-01-16T06:09:33;-1.20;99.90
8537;DHT22;4306;50.210;10.628;2024-01-16T06:12:00;-1.20;99.90
8537;DHT22;4306;50.210;10.628;2024-01-16T06:14:29;-1.20;99.90
8537;DHT22;4306;50.210;10.628;2024-01-16T06:16:56;-1.20;99.90
8537;DHT22;4306;50.210;10.628;2024-01-16T06:19:23;-1.10;99.90
8537;DHT22;4306;50.210;10.628;2024-01-16T06:21:51;-1.10;99.90
8537;DHT22;4306;50.210;10.628;2024-01-16T06:24:18;-1.10;99.90
8537;DHT22;4306;50.210;10.628;2024-01-16T06:26:45;-1.10;99.90
8537;DHT22;4306;50.210;10.628;2024-01-16T06:29:12;-1.10;99.90
8537;DHT22;4306;50.210;10.628;2024-01-16T06:31:39;-1.10;99.90
8537;DHT22;4306;50.210;10.628;2024-01-16T06:34:07;-1.10;99.90
8537;DHT22;4306;50.210;10.628;2024-01-16T06:36:34;-1.10;99.90
8537;DHT22;4306;50.210;10.628;2024-01-16T06:39:02;-1.10;99.90
8537;DHT22;4306;50.210;10.628;2024-01-16T06:41:29;-1.10;99.90
8537;DHT22;4306;50.210;10.628;2024-01-16T06:43:56;-1.10;99.90
8537;DHT22;4306;50.210;10.628;2024-01-16T06:46:23;-1.00;99.90
8537;DHT22;4306;50.210;10.628;2024-01-16T06:48:51;-1.00;99.90
8537;DHT22;4306;50.210;10.628;2024-01-16T06:51:18;-1.00;99.90
8537;DHT22;4306;50.210;10.628;2024-01-16T06:53:44;-1.00;99.90
8537;DHT22;4306;50.210;10.628;2024-01-16T06:56:13;-1.10;99.90
8537;DHT22;4306;50.210;10.628;2024-01-16T06:58:40;-1.10;99.90
8537;DHT22;4306;50.210;10.628;2024-01-16T07:01:09;-1.10;99.90
8537;DHT22;4306;50.210;10.628;2024-01-16T07:03:36;-1.10;99.90
8537;DHT22;4306;50.210;10.628;2024-01-16T07:06:04;-1.10;99.90
8537;DHT22;4306;50.210;10.628;2024-01-16T07:08:31;-1.20;99.90
8537;DHT22;4306;50.210;10.628;2024-01-16T07:10:58;-1.00;99.90
8537;DHT22;4306;50.210;10.628;2024-01-16T07:13:26;-1.20;99.90
8537;DHT22;4306;50.210;10.628;2024-01-16T07:15:53;-1.30;99.90
8537;DHT22;4306;50.210;10.628;2024-01-16T07:18:20;-1.20;99.90
8537;DHT22;4306;50.210;10.628;2024-01-16T07:20:47;-1.20;99.90
8537;DHT22;4306;50.210;10.628;2024-01-16T07:23:14;-1.20;99.90
8537;DHT22;4306;50.210;10.628;2024-01-16T07:25:41;-1.20;99.90
8537;DHT22;4306;50.210;10.628;2024-01-16T07:28:08;-0.90;99.90
8537;DHT22;4306;50.210;10.628;2024-01-16T07:30:37;-0.90;99.90
8537;DHT22;4306;50.210;10.628;2024-01-16T07:33:05;-1.10;99.90
8537;DHT22;4306;50.210;10.628;2024-01-16T07:35:32;-1.10;99.90
8537;DHT22;4306;50.210;10.628;2024-01-16T07:37:59;-1.10;99.90
8537;DHT22;4306;50.210;10.628;2024-01-16T07:40:26;-1.10;99.90
8537;DHT22;4306;50.210;10.628;2024-01-16T07:42:53;-1.00;99.90
8537;DHT22;4306;50.210;10.628;2024-01-16T07:45:20;-1.00;99.90
8537;DHT22;4306;50.210;10.628;2024-01-16T07:47:48;-0.90;99.90
8537;DHT22;4306;50.210;10.628;2024-01-16T07:50:15;-0.90;99.90
8537;DHT22;4306;50.210;10.628;2024-01-16T07:52:42;-0.90;99.90
8537;DHT22;4306;50.210;10.628;2024-01-16T07:55:09;-0.90;99.90
8537;DHT22;4306;50.210;10.628;2024-01-16T07:57:36;-0.90;99.90
8537;DHT22;4306;50.210;10.628;2024-01-16T08:00:04;-0.90;99.90
8537;DHT22;4306;50.210;10.628;2024-01-16T08:02:37;-0.90;99.90
8537;DHT22;4306;50.210;10.628;2024-01-16T08:05:06;-0.90;99.90
8537;DHT22;4306;50.210;10.628;2024-01-16T08:07:34;-0.90;99.90
8537;DHT22;4306;50.210;10.628;2024-01-16T08:10:01;-0.70;99.90
8537;DHT22;4306;50.210;10.628;2024-01-16T08:12:28;-0.90;99.90
8537;DHT22;4306;50.210;10.628;2024-01-16T08:14:55;-0.90;99.90
8537;DHT22;4306;50.210;10.628;2024-01-16T08:17:22;-0.90;99.90
8537;DHT22;4306;50.210;10.628;2024-01-16T08:19:49;-0.80;99.90
8537;DHT22;4306;50.210;10.628;2024-01-16T08:22:17;-0.80;99.90
8537;DHT22;4306;50.210;10.628;2024-01-16T08:24:44;-0.70;99.90
8537;DHT22;4306;50.210;10.628;2024-01-16T08:27:11;-0.60;99.90
8537;DHT22;4306;50.210;10.628;2024-01-16T08:29:39;-0.50;99.90
8537;DHT22;4306;50.210;10.628;2024-01-16T08:32:06;-0.50;99.90
8537;DHT22;4306;50.210;10.628;2024-01-16T08:34:33;-0.50;99.90
8537;DHT22;4306;50.210;10.628;2024-01-16T08:37:00;-0.50;99.90
8537;DHT22;4306;50.210;10.628;2024-01-16T08:39:30;-0.40;99.90
8537;DHT22;4306;50.210;10.628;2024-01-16T08:41:59;-0.40;99.90
8537;DHT22;4306;50.210;10.628;2024-01-16T08:44:27;-0.40;99.90
8537;DHT22;4306;50.210;10.628;2024-01-16T08:46:55;-0.30;99.90
8537;DHT22;4306;50.210;10.628;2024-01-16T08:49:23;-0.20;99.90
8537;DHT22;4306;50.210;10.628;2024-01-16T08:51:50;-0.30;99.90
8537;DHT22;4306;50.210;10.628;2024-01-16T08:54:17;-0.30;99.90
8537;DHT22;4306;50.210;10.628;2024-01-16T08:56:45;-0.20;99.90
8537;DHT22;4306;50.210;10.628;2024-01-16T08:59:12;-0.30;99.90
8537;DHT22;4306;50.210;10.628;2024-01-16T09:01:39;-0.40;99.90
8537;DHT22;4306;50.210;10.628;2024-01-16T09:04:07;-0.30;99.90
8537;DHT22;4306;50.210;10.628;2024-01-16T09:06:34;-0.20;99.90
8537;DHT22;4306;50.210;10.628;2024-01-16T09:09:01;-0.20;99.90
8537;DHT22;4306;50.210;10.628;2024-01-16T09:11:30;-0.30;99.90
8537;DHT22;4306;50.210;10.628;2024-01-16T09:13:58;-0.30;99.90
8537;DHT22;4306;50.210;10.628;2024-01-16T09:16:25;-0.20;99.90
8537;DHT22;4306;50.210;10.628;2024-01-16T09:18:52;-0.10;99.90
8537;DHT22;4306;50.210;10.628;2024-01-16T09:21:20;-0.20;99.90
8537;DHT22;4306;50.210;10.628;2024-01-16T09:23:47;-0.10;99.90
8537;DHT22;4306;50.210;10.628;2024-01-16T09:26:14;-0.30;99.90
8537;DHT22;4306;50.210;10.628;2024-01-16T09:28:41;-0.30;99.90
8537;DHT22;4306;50.210;10.628;2024-01-16T09:31:10;-0.20;99.90
8537;DHT22;4306;50.210;10.628;2024-01-16T09:33:37;-0.20;99.90
8537;DHT22;4306;50.210;10.628;2024-01-16T09:36:04;-0.10;99.90
8537;DHT22;4306;50.210;10.628;2024-01-16T09:38:32;-0.10;99.90
8537;DHT22;4306;50.210;10.628;2024-01-16T09:40:59;-0.10;99.90
8537;DHT22;4306;50.210;10.628;2024-01-16T09:43:28;-0.20;99.90
8537;DHT22;4306;50.210;10.628;2024-01-16T09:45:57;0.00;99.90
8537;DHT22;4306;50.210;10.628;2024-01-16T09:48:30;-0.10;99.90
8537;DHT22;4306;50.210;10.628;2024-01-16T09:50:58;-0.10;99.90
8537;DHT22;4306;50.210;10.628;2024-01-16T09:53:25;0.10;99.90
8537;DHT22;4306;50.210;10.628;2024-01-16T09:55:54;0.00;99.90
8537;DHT22;4306;50.210;10.628;2024-01-16T09:58:21;0.00;99.90
8537;DHT22;4306;50.210;10.628;2024-01-16T10:00:49;0.10;99.90
8537;DHT22;4306;50.210;10.628;2024-01-16T10:03:17;0.20;99.90
8537;DHT22;4306;50.210;10.628;2024-01-16T10:05:49;0.20;99.90
8537;DHT22;4306;50.210;10.628;2024-01-16T10:08:16;0.20;99.90
8537;DHT22;4306;50.210;10.628;2024-01-16T10:10:47;0.10;99.90
8537;DHT22;4306;50.210;10.628;2024-01-16T10:13:15;0.20;99.90
8537;DHT22;4306;50.210;10.628;2024-01-16T10:15:42;0.20;99.90
8537;DHT22;4306;50.210;10.628;2024-01-16T10:18:22;0.20;99.90
8537;DHT22;4306;50.210;10.628;2024-01-16T10:20:51;0.30;99.90
8537;DHT22;4306;50.210;10.628;2024-01-16T10:23:26;0.30;99.90
8537;DHT22;4306;50.210;10.628;2024-01-16T10:26:06;0.50;99.90
8537;DHT22;4306;50.210;10.628;2024-01-16T10:28:34;0.40;99.90
8537;DHT22;4306;50.210;10.628;2024-01-16T10:31:02;0.30;99.90
8537;DHT22;4306;50.210;10.628;2024-01-16T10:33:30;0.30;99.90
8537;DHT22;4306;50.210;10.628;2024-01-16T10:36:14;0.20;99.90
8537;DHT22;4306;50.210;10.628;2024-01-16T10:38:44;0.20;99.90
8537;DHT22;4306;50.210;10.628;2024-01-16T10:41:12;0.10;99.90
8537;DHT22;4306;50.210;10.628;2024-01-16T10:43:42;0.10;99.90
8537;DHT22;4306;50.210;10.628;2024-01-16T10:46:11;0.00;99.90
8537;DHT22;4306;50.210;10.628;2024-01-16T10:48:40;0.00;99.90
8537;DHT22;4306;50.210;10.628;2024-01-16T10:51:10;0.00;99.90
8537;DHT22;4306;50.210;10.628;2024-01-16T10:53:43;-0.20;99.90
8537;DHT22;4306;50.210;10.628;2024-01-16T10:56:12;-0.30;99.90
8537;DHT22;4306;50.210;10.628;2024-01-16T10:58:42;-0.20;99.90
8537;DHT22;4306;50.210;10.628;2024-01-16T11:01:11;-0.20;99.90
8537;DHT22;4306;50.210;10.628;2024-01-16T11:03:46;-0.30;99.90
8537;DHT22;4306;50.210;10.628;2024-01-16T11:06:15;-0.40;99.90
8537;DHT22;4306;50.210;10.628;2024-01-16T11:08:45;-0.40;99.90
8537;DHT22;4306;50.210;10.628;2024-01-16T11:11:15;-0.40;99.90
8537;DHT22;4306;50.210;10.628;2024-01-16T11:13:42;-0.40;99.90
8537;DHT22;4306;50.210;10.628;2024-01-16T11:16:10;-0.30;99.90
8537;DHT22;4306;50.210;10.628;2024-01-16T11:18:39;-0.30;99.90
8537;DHT22;4306;50.210;10.628;2024-01-16T11:21:08;-0.20;99.90
8537;DHT22;4306;50.210;10.628;2024-01-16T11:23:37;-0.30;99.90
8537;DHT22;4306;50.210;10.628;2024-01-16T11:26:29;-0.40;99.90
8537;DHT22;4306;50.210;10.628;2024-01-16T11:28:58;-0.30;99.90
8537;DHT22;4306;50.210;10.628;2024-01-16T11:31:29;-0.30;99.90
8537;DHT22;4306;50.210;10.628;2024-01-16T11:33:58;-0.40;99.90
8537;DHT22;4306;50.210;10.628;2024-01-16T11:36:59;-0.20;99.90
8537;DHT22;4306;50.210;10.628;2024-01-16T11:39:28;-0.20;99.90
8537;DHT22;4306;50.210;10.628;2024-01-16T11:41:57;-0.20;99.90
8537;DHT22;4306;50.210;10.628;2024-01-16T11:44:38;-0.20;99.90
8537;DHT22;4306;50.210;10.628;2024-01-16T11:47:06;-0.10;99.90
8537;DHT22;4306;50.210;10.628;2024-01-16T11:49:34;0.00;99.90
8537;DHT22;4306;50.210;10.628;2024-01-16T11:52:01;-0.20;99.90
8537;DHT22;4306;50.210;10.628;2024-01-16T11:54:29;-0.10;99.90
8537;DHT22;4306;50.210;10.628;2024-01-16T11:57:16;-0.10;99.90
8537;DHT22;4306;50.210;10.628;2024-01-16T12:00:04;-0.10;99.90
8537;DHT22;4306;50.210;10.628;2024-01-16T12:02:51;-0.10;99.90
8537;DHT22;4306;50.210;10.628;2024-01-16T12:05:20;-0.10;99.90
8537;DHT22;4306;50.210;10.628;2024-01-16T12:07:48;-0.10;99.90
8537;DHT22;4306;50.210;10.628;2024-01-16T12:10:16;0.00;99.90
8537;DHT22;4306;50.210;10.628;2024-01-16T12:12:46;0.00;99.90
8537;DHT22;4306;50.210;10.628;2024-01-16T12:15:15;-0.10;99.90
8537;DHT22;4306;50.210;10.628;2024-01-16T12:17:56;-0.10;99.90
8537;DHT22;4306;50.210;10.628;2024-01-16T12:20:25;-0.10;99.90
8537;DHT22;4306;50.210;10.628;2024-01-16T12:22:55;0.00;99.90
8537;DHT22;4306;50.210;10.628;2024-01-16T12:25:24;-0.10;99.90
8537;DHT22;4306;50.210;10.628;2024-01-16T12:28:00;0.00;99.90
8537;DHT22;4306;50.210;10.628;2024-01-16T12:30:35;0.00;99.90
8537;DHT22;4306;50.210;10.628;2024-01-16T12:33:12;-0.10;99.90
8537;DHT22;4306;50.210;10.628;2024-01-16T12:35:43;-0.10;99.90
8537;DHT22;4306;50.210;10.628;2024-01-16T12:38:38;-0.10;99.90
8537;DHT22;4306;50.210;10.628;2024-01-16T12:41:25;-0.10;99.90
8537;DHT22;4306;50.210;10.628;2024-01-16T12:43:59;-0.10;99.90
8537;DHT22;4306;50.210;10.628;2024-01-16T12:46:42;-0.20;99.90
8537;DHT22;4306;50.210;10.628;2024-01-16T12:49:29;-0.10;99.90
8537;DHT22;4306;50.210;10.628;2024-01-16T12:52:22;-0.10;99.90
8537;DHT22;4306;50.210;10.628;2024-01-16T12:55:00;-0.10;99.90
8537;DHT22;4306;50.210;10.628;2024-01-16T13:01:23;-0.10;99.90
8537;DHT22;4306;50.210;10.628;2024-01-16T13:03:54;0.00;99.90
8537;DHT22;4306;50.210;10.628;2024-01-16T13:06:26;0.00;99.90
8537;DHT22;4306;50.210;10.628;2024-01-16T13:09:19;0.10;99.90
8537;DHT22;4306;50.210;10.628;2024-01-16T13:12:23;0.10;99.90
8537;DHT22;4306;50.210;10.628;2024-01-16T13:15:01;0.10;99.90
8537;DHT22;4306;50.210;10.628;2024-01-16T13:20:45;0.10;99.90
8537;DHT22;4306;50.210;10.628;2024-01-16T13:23:47;0.10;99.90
8537;DHT22;4306;50.210;10.628;2024-01-16T13:26:22;0.20;99.90
8537;DHT22;4306;50.210;10.628;2024-01-16T13:28:55;0.10;99.90
8537;DHT22;4306;50.210;10.628;2024-01-16T13:31:32;0.20;99.90
8537;DHT22;4306;50.210;10.628;2024-01-16T13:34:07;0.30;99.90
8537;DHT22;4306;50.210;10.628;2024-01-16T13:36:41;0.30;99.90
8537;DHT22;4306;50.210;10.628;2024-01-16T13:39:18;0.50;99.90
8537;DHT22;4306;50.210;10.628;2024-01-16T13:41:52;0.80;99.90
8537;DHT22;4306;50.210;10.628;2024-01-16T13:44:37;0.80;99.90
8537;DHT22;4306;50.210;10.628;2024-01-16T13:47:31;0.70;99.90
8537;DHT22;4306;50.210;10.628;2024-01-16T13:50:40;0.80;99.90
8537;DHT22;4306;50.210;10.628;2024-01-16T13:53:12;0.90;99.90
8537;DHT22;4306;50.210;10.628;2024-01-16T13:55:48;0.80;99.90
8537;DHT22;4306;50.210;10.628;2024-01-16T13:58:15;0.90;99.90
8537;DHT22;4306;50.210;10.628;2024-01-16T14:00:44;0.90;99.90
8537;DHT22;4306;50.210;10.628;2024-01-16T14:03:11;0.80;99.90
8537;DHT22;4306;50.210;10.628;2024-01-16T14:05:39;0.80;99.90
8537;DHT22;4306;50.210;10.628;2024-01-16T14:08:08;0.90;99.90
8537;DHT22;4306;50.210;10.628;2024-01-16T14:10:38;0.80;99.90
8537;DHT22;4306;50.210;10.628;2024-01-16T14:13:05;0.80;99.90
8537;DHT22;4306;50.210;10.628;2024-01-16T14:15:32;0.80;99.90
8537;DHT22;4306;50.210;10.628;2024-01-16T14:17:59;0.70;99.90
8537;DHT22;4306;50.210;10.628;2024-01-16T14:20:26;0.70;99.90
8537;DHT22;4306;50.210;10.628;2024-01-16T14:22:55;0.60;99.90
8537;DHT22;4306;50.210;10.628;2024-01-16T14:25:23;0.50;99.90
8537;DHT22;4306;50.210;10.628;2024-01-16T14:27:56;0.60;99.90
8537;DHT22;4306;50.210;10.628;2024-01-16T14:30:24;0.50;99.90
8537;DHT22;4306;50.210;10.628;2024-01-16T14:32:52;0.50;99.90
8537;DHT22;4306;50.210;10.628;2024-01-16T14:35:20;0.50;99.90
8537;DHT22;4306;50.210;10.628;2024-01-16T14:37:47;0.40;99.90
8537;DHT22;4306;50.210;10.628;2024-01-16T14:40:16;0.50;99.90
8537;DHT22;4306;50.210;10.628;2024-01-16T14:42:46;0.50;99.90
8537;DHT22;4306;50.210;10.628;2024-01-16T14:45:14;0.50;99.90
8537;DHT22;4306;50.210;10.628;2024-01-16T14:47:42;0.40;99.90
8537;DHT22;4306;50.210;10.628;2024-01-16T14:50:11;0.40;99.90
8537;DHT22;4306;50.210;10.628;2024-01-16T14:52:42;0.50;99.90
8537;DHT22;4306;50.210;10.628;2024-01-16T14:55:09;0.50;99.90
8537;DHT22;4306;50.210;10.628;2024-01-16T14:57:39;0.50;99.90
8537;DHT22;4306;50.210;10.628;2024-01-16T15:00:09;0.50;99.90
8537;DHT22;4306;50.210;10.628;2024-01-16T15:02:45;0.60;99.90
8537;DHT22;4306;50.210;10.628;2024-01-16T15:05:13;0.40;99.90
8537;DHT22;4306;50.210;10.628;2024-01-16T15:07:40;0.40;99.90
8537;DHT22;4306;50.210;10.628;2024-01-16T15:10:09;0.40;99.90
8537;DHT22;4306;50.210;10.628;2024-01-16T15:12:38;0.40;99.90
8537;DHT22;4306;50.210;10.628;2024-01-16T15:15:07;0.40;99.90
8537;DHT22;4306;50.210;10.628;2024-01-16T15:17:35;0.40;99.90
8537;DHT22;4306;50.210;10.628;2024-01-16T15:20:03;0.30;99.90
8537;DHT22;4306;50.210;10.628;2024-01-16T15:22:34;0.40;99.90
8537;DHT22;4306;50.210;10.628;2024-01-16T15:25:03;0.20;99.90
8537;DHT22;4306;50.210;10.628;2024-01-16T15:27:31;0.30;99.90
8537;DHT22;4306;50.210;10.628;2024-01-16T15:30:00;0.30;99.90
8537;DHT22;4306;50.210;10.628;2024-01-16T15:32:27;0.30;99.90
8537;DHT22;4306;50.210;10.628;2024-01-16T15:34:54;0.10;99.90
8537;DHT22;4306;50.210;10.628;2024-01-16T15:37:21;0.10;99.90
8537;DHT22;4306;50.210;10.628;2024-01-16T15:39:48;0.10;99.90
8537;DHT22;4306;50.210;10.628;2024-01-16T15:42:15;0.20;99.90
8537;DHT22;4306;50.210;10.628;2024-01-16T15:44:42;0.10;99.90
8537;DHT22;4306;50.210;10.628;2024-01-16T15:47:11;0.10;99.90
8537;DHT22;4306;50.210;10.628;2024-01-16T15:49:38;0.10;99.90
8537;DHT22;4306;50.210;10.628;2024-01-16T15:52:05;0.10;99.90
8537;DHT22;4306;50.210;10.628;2024-01-16T15:54:33;0.00;99.90
8537;DHT22;4306;50.210;10.628;2024-01-16T15:57:00;0.00;99.90
8537;DHT22;4306;50.210;10.628;2024-01-16T15:59:27;0.00;99.90
8537;DHT22;4306;50.210;10.628;2024-01-16T16:01:54;0.00;99.90
8537;DHT22;4306;50.210;10.628;2024-01-16T16:04:23;0.00;99.90
8537;DHT22;4306;50.210;10.628;2024-01-16T16:06:50;0.00;99.90
8537;DHT22;4306;50.210;10.628;2024-01-16T16:09:17;0.00;99.90
8537;DHT22;4306;50.210;10.628;2024-01-16T16:11:44;0.00;99.90
8537;DHT22;4306;50.210;10.628;2024-01-16T16:14:20;-0.10;99.90
8537;DHT22;4306;50.210;10.628;2024-01-16T16:16:48;-0.10;99.90
8537;DHT22;4306;50.210;10.628;2024-01-16T16:19:16;-0.10;99.90
8537;DHT22;4306;50.210;10.628;2024-01-16T16:21:44;-0.10;99.90